createdAt,value
2022-10-30T00:00:30.927Z,53.20
2022-10-30T00:03:02.907Z,52.08
2022-10-30T00:05:32.947Z,48.92
2022-10-30T00:08:00.960Z,40.35
2022-10-30T00:10:34.601Z,39.15
2022-10-30T00:13:03.052Z,41.17
2022-10-30T00:15:32.972Z,39.65
2022-10-30T00:18:06.079Z,41.15
2022-10-30T00:20:39.891Z,42.53
2022-10-30T00:23:09.783Z,42.38
2022-10-30T00:25:37.797Z,42.40
2022-10-30T00:28:07.725Z,41.72
2022-10-30T00:30:39.424Z,42.15
2022-10-30T00:33:08.614Z,41.72
2022-10-30T00:35:39.404Z,40.83
2022-10-30T00:38:08.099Z,41.55
2022-10-30T00:40:38.412Z,39.08
2022-10-30T00:43:37.459Z,38.13
2022-10-30T00:46:32.179Z,36.15
2022-10-30T00:49:19.391Z,36.65
2022-10-30T00:52:00.294Z,37.40
2022-10-30T00:54:27.644Z,35.95
2022-10-30T00:56:59.358Z,35.78
2022-10-30T00:59:34.035Z,34.90
2022-10-30T01:02:04.324Z,35.88
2022-10-30T01:04:36.568Z,38.50
2022-10-30T01:07:13.119Z,42.60
2022-10-30T01:09:43.753Z,39.92
2022-10-30T01:12:11.929Z,41.22
2022-10-30T01:14:47.911Z,38.08
2022-10-30T01:17:43.652Z,39.78
2022-10-30T01:20:35.254Z,42.88
2022-10-30T01:23:52.197Z,40.63
2022-10-30T01:26:35.064Z,39.20
2022-10-30T01:29:49.023Z,41.10
2022-10-30T01:32:45.566Z,43.17
2022-10-30T01:36:08.541Z,38.65
2022-10-30T01:39:21.179Z,31.70
2022-10-30T01:41:53.094Z,37.13
2022-10-30T01:44:32.093Z,35.10
2022-10-30T01:47:36.554Z,32.80
2022-10-30T01:50:29.444Z,32.08
2022-10-30T01:53:24.503Z,31.08
2022-10-30T01:56:28.470Z,30.65
2022-10-30T01:59:36.159Z,28.80
2022-10-30T02:02:05.745Z,26.20
2022-10-30T02:04:36.407Z,25.73
2022-10-30T02:07:09.014Z,25.13
2022-10-30T02:09:43.261Z,26.02
2022-10-30T02:12:20.192Z,26.10
2022-10-30T02:15:10.702Z,26.60
2022-10-30T02:17:43.534Z,28.38
2022-10-30T02:20:19.625Z,30.48
2022-10-30T02:22:53.170Z,30.55
2022-10-30T02:25:26.382Z,32.20
2022-10-30T02:27:53.830Z,29.02
2022-10-30T02:30:21.811Z,30.23
2022-10-30T02:32:49.902Z,28.63
2022-10-30T02:35:22.123Z,29.95
2022-10-30T02:37:55.989Z,29.27
2022-10-30T02:40:29.986Z,29.77
2022-10-30T02:43:02.499Z,29.05
2022-10-30T02:45:34.472Z,31.80
2022-10-30T02:48:04.369Z,31.27
2022-10-30T02:50:33.619Z,30.00
2022-10-30T02:53:01.057Z,33.45
2022-10-30T02:55:31.846Z,30.60
2022-10-30T02:58:05.059Z,29.92
2022-10-30T03:00:32.719Z,20.97
2022-10-30T03:03:00.848Z,28.50
2022-10-30T03:05:32.142Z,27.40
2022-10-30T03:08:01.117Z,29.23
2022-10-30T03:10:29.805Z,28.80
2022-10-30T03:12:59.221Z,28.05
2022-10-30T03:15:29.390Z,29.70
2022-10-30T03:17:59.743Z,27.27
2022-10-30T03:20:27.853Z,26.13
2022-10-30T03:22:59.540Z,25.85
2022-10-30T03:25:31.111Z,24.73
2022-10-30T03:28:08.252Z,24.02
2022-10-30T03:30:40.998Z,24.20
2022-10-30T03:33:10.185Z,23.63
2022-10-30T03:35:37.835Z,24.67
2022-10-30T03:38:08.062Z,24.98
2022-10-30T03:40:40.439Z,24.85
2022-10-30T03:43:08.609Z,27.38
2022-10-30T03:45:38.297Z,27.92
2022-10-30T03:48:08.804Z,28.17
2022-10-30T03:50:38.249Z,25.88
2022-10-30T03:53:08.471Z,27.67
2022-10-30T03:55:38.918Z,25.73
2022-10-30T04:01:07.511Z,27.13
2022-10-30T04:03:42.535Z,26.90
2022-10-30T04:06:14.248Z,27.80
2022-10-30T04:08:44.264Z,26.48
2022-10-30T04:11:14.357Z,25.73
2022-10-30T04:13:44.448Z,27.77
2022-10-30T04:16:14.630Z,26.02
2022-10-30T04:18:47.203Z,34.42
2022-10-30T04:21:17.300Z,26.20
2022-10-30T04:23:45.390Z,27.02
2022-10-30T04:26:17.493Z,30.08
2022-10-30T04:28:50.502Z,30.83
2022-10-30T04:31:20.155Z,28.90
2022-10-30T04:36:36.521Z,33.55
2022-10-30T04:39:05.305Z,33.70
2022-10-30T04:41:37.485Z,29.25
2022-10-30T04:44:14.967Z,27.15
2022-10-30T04:46:46.341Z,27.98
2022-10-30T04:49:13.989Z,30.48
2022-10-30T04:51:44.398Z,30.83
2022-10-30T04:54:15.588Z,31.92
2022-10-30T04:56:46.079Z,32.05
2022-10-30T04:59:16.427Z,31.77
2022-10-30T05:01:47.710Z,31.23
2022-10-30T05:04:19.415Z,30.90
2022-10-30T05:06:50.445Z,31.40
2022-10-30T05:09:20.424Z,29.60
2022-10-30T05:11:58.996Z,30.42
2022-10-30T05:14:33.821Z,29.15
2022-10-30T05:17:08.121Z,27.85
2022-10-30T05:19:38.415Z,27.17
2022-10-30T05:22:13.132Z,27.48
2022-10-30T05:24:40.945Z,26.40
2022-10-30T05:27:11.510Z,25.65
2022-10-30T05:29:38.553Z,25.27
2022-10-30T05:32:08.278Z,24.50
2022-10-30T05:34:47.796Z,24.85
2022-10-30T05:37:20.598Z,30.75
2022-10-30T05:39:52.971Z,25.73
2022-10-30T05:45:15.230Z,24.48
2022-10-30T05:47:58.652Z,24.77
2022-10-30T05:50:31.175Z,24.95
2022-10-30T05:53:17.389Z,28.52
2022-10-30T05:55:46.950Z,26.70
2022-10-30T05:58:27.275Z,28.25
2022-10-30T06:00:57.991Z,24.98
2022-10-30T06:03:41.400Z,21.55
2022-10-30T06:06:09.339Z,24.10
2022-10-30T06:08:42.699Z,24.13
2022-10-30T06:11:29.602Z,23.08
2022-10-30T06:14:01.218Z,24.92
2022-10-30T06:16:55.634Z,22.17
2022-10-30T06:19:44.318Z,24.73
2022-10-30T06:22:29.559Z,24.92
2022-10-30T06:25:10.405Z,23.15
2022-10-30T06:27:56.909Z,25.40
2022-10-30T06:30:30.121Z,22.48
2022-10-30T06:33:00.163Z,21.75
2022-10-30T06:35:29.996Z,29.58
2022-10-30T06:38:01.247Z,30.85
2022-10-30T06:40:32.218Z,36.67
2022-10-30T06:43:24.080Z,35.13
2022-10-30T06:46:16.515Z,35.63
2022-10-30T06:48:48.354Z,34.38
2022-10-30T06:51:18.375Z,36.25
2022-10-30T06:53:49.419Z,38.55
2022-10-30T06:56:38.589Z,37.85
2022-10-30T06:59:39.998Z,36.17
2022-10-30T07:02:36.944Z,35.95
2022-10-30T07:05:12.005Z,34.63
2022-10-30T07:07:40.034Z,34.60
2022-10-30T07:10:12.514Z,35.63
2022-10-30T07:13:08.590Z,35.50
2022-10-30T07:15:58.471Z,36.95
2022-10-30T07:18:31.121Z,36.45
2022-10-30T07:21:04.461Z,34.25
2022-10-30T07:23:52.504Z,40.42
2022-10-30T07:26:43.051Z,37.50
2022-10-30T07:29:32.400Z,33.95
2022-10-30T07:32:32.628Z,33.47
2022-10-30T07:35:14.234Z,33.83
2022-10-30T07:38:20.724Z,33.83
2022-10-30T07:41:09.598Z,24.08
2022-10-30T07:43:51.654Z,30.10
2022-10-30T07:46:58.826Z,31.92
2022-10-30T07:49:43.785Z,32.10
2022-10-30T07:52:17.709Z,33.20
2022-10-30T07:54:48.180Z,30.95
2022-10-30T07:57:44.075Z,32.05
2022-10-30T08:00:31.175Z,31.67
2022-10-30T08:03:21.892Z,32.00
2022-10-30T08:06:14.839Z,31.55
2022-10-30T08:08:45.982Z,31.73
2022-10-30T08:11:30.882Z,32.85
2022-10-30T08:14:02.449Z,33.15
2022-10-30T08:16:31.331Z,33.63
2022-10-30T08:19:01.278Z,34.38
2022-10-30T08:21:30.530Z,33.85
2022-10-30T08:24:12.497Z,32.90
2022-10-30T08:26:46.145Z,35.25
2022-10-30T08:29:20.582Z,35.92
2022-10-30T08:31:51.054Z,33.40
2022-10-30T08:34:39.319Z,33.45
2022-10-30T08:37:10.773Z,32.85
2022-10-30T08:39:41.637Z,34.15
2022-10-30T08:42:36.148Z,33.30
2022-10-30T08:45:12.530Z,43.10
2022-10-30T08:48:15.847Z,38.58
2022-10-30T08:50:46.568Z,48.22
2022-10-30T08:53:21.151Z,47.40
2022-10-30T08:55:51.106Z,52.05
2022-10-30T08:58:29.876Z,49.45
2022-10-30T09:01:01.418Z,45.45
2022-10-30T09:03:55.879Z,45.08
2022-10-30T09:07:05.405Z,41.22
2022-10-30T09:10:09.185Z,40.50
2022-10-30T09:12:41.712Z,43.35
2022-10-30T09:15:12.899Z,43.38
2022-10-30T09:18:03.262Z,38.97
2022-10-30T09:20:39.637Z,38.45
2022-10-30T09:23:07.413Z,41.08
2022-10-30T09:25:37.622Z,36.72
2022-10-30T09:28:30.200Z,35.75
2022-10-30T09:31:30.194Z,34.80
2022-10-30T09:33:58.393Z,34.50
2022-10-30T09:36:49.162Z,35.83
2022-10-30T09:39:20.278Z,36.30
2022-10-30T09:42:07.897Z,34.45
2022-10-30T09:45:29.366Z,32.88
2022-10-30T09:48:28.968Z,36.78
2022-10-30T09:51:16.226Z,33.27
2022-10-30T09:54:22.265Z,32.92
2022-10-30T09:57:19.349Z,33.05
2022-10-30T10:00:13.779Z,30.27
2022-10-30T10:03:14.903Z,31.02
2022-10-30T10:06:20.625Z,29.02
2022-10-30T10:09:20.146Z,28.83
2022-10-30T10:12:30.666Z,27.05
2022-10-30T10:15:03.020Z,27.55
2022-10-30T10:17:43.426Z,23.30
2022-10-30T10:20:39.758Z,23.77
2022-10-30T10:23:28.034Z,21.00
2022-10-30T10:26:01.888Z,19.02
2022-10-30T10:31:47.206Z,19.75
2022-10-30T10:34:30.726Z,21.80
2022-10-30T10:37:34.947Z,18.80
2022-10-30T10:40:48.527Z,22.60
2022-10-30T10:43:40.909Z,21.17
2022-10-30T10:46:37.562Z,22.15
2022-10-30T10:49:22.751Z,22.23
2022-10-30T10:52:02.381Z,25.05
2022-10-30T10:54:53.899Z,22.42
2022-10-30T10:57:44.887Z,22.35
2022-10-30T11:00:26.854Z,22.27
2022-10-30T11:03:19.746Z,20.05
2022-10-30T11:06:05.333Z,18.63
2022-10-30T11:08:38.833Z,18.30
2022-10-30T11:11:08.785Z,16.25
2022-10-30T11:13:40.736Z,16.00
2022-10-30T11:16:21.276Z,14.85
2022-10-30T11:18:55.972Z,14.52
2022-10-30T11:21:45.168Z,14.52
2022-10-30T11:24:39.255Z,13.13
2022-10-30T11:27:30.801Z,14.00
2022-10-30T11:30:07.832Z,13.48
2022-10-30T11:32:37.961Z,14.93
2022-10-30T11:35:09.417Z,14.82
2022-10-30T11:37:39.869Z,14.18
2022-10-30T11:40:17.661Z,15.20
2022-10-30T11:43:05.991Z,15.20
2022-10-30T11:48:33.711Z,15.20
2022-10-30T11:51:02.804Z,14.23
2022-10-30T11:53:48.079Z,13.77
2022-10-30T11:56:23.287Z,14.63
2022-10-30T11:59:01.495Z,15.07
2022-10-30T12:01:44.524Z,15.77
2022-10-30T12:04:32.649Z,15.93
2022-10-30T12:07:24.452Z,14.88
2022-10-30T12:09:52.311Z,15.02
2022-10-30T12:12:42.427Z,15.77
2022-10-30T12:15:38.933Z,12.55
2022-10-30T12:18:15.895Z,12.25
2022-10-30T12:20:49.538Z,13.00
2022-10-30T12:23:30.478Z,12.88
2022-10-30T12:26:02.097Z,13.00
2022-10-30T12:28:32.623Z,12.35
2022-10-30T12:31:20.714Z,12.93
2022-10-30T12:37:08.865Z,13.88
2022-10-30T12:39:57.710Z,13.82
2022-10-30T12:42:29.295Z,14.63
2022-10-30T12:45:22.298Z,13.98
2022-10-30T12:48:18.591Z,15.95
2022-10-30T12:51:09.281Z,14.43
2022-10-30T12:54:10.756Z,13.55
2022-10-30T12:56:41.806Z,18.17
2022-10-30T12:59:28.616Z,12.88
2022-10-30T13:02:16.331Z,13.98
2022-10-30T13:04:50.547Z,13.85
2022-10-30T13:07:39.396Z,14.20
2022-10-30T13:10:39.758Z,12.38
2022-10-30T13:13:19.108Z,12.80
2022-10-30T13:15:54.270Z,15.18
2022-10-30T13:18:24.087Z,11.85
2022-10-30T13:21:40.027Z,14.75
2022-10-30T13:24:14.631Z,13.57
2022-10-30T13:27:22.123Z,14.52
2022-10-30T13:30:06.303Z,15.07
2022-10-30T13:33:30.138Z,14.10
2022-10-30T13:36:40.017Z,13.93
2022-10-30T13:39:42.092Z,13.32
2022-10-30T13:42:47.014Z,13.43
2022-10-30T13:45:33.722Z,12.85
2022-10-30T13:48:29.580Z,13.27
2022-10-30T13:51:34.895Z,12.60
2022-10-30T13:54:19.784Z,14.65
2022-10-30T13:56:50.777Z,12.85
2022-10-30T13:59:51.653Z,13.18
2022-10-30T14:02:37.005Z,16.85
2022-10-30T14:05:39.962Z,13.80
2022-10-30T14:08:41.647Z,13.02
2022-10-30T14:11:14.688Z,12.95
2022-10-30T14:14:08.787Z,12.13
2022-10-30T14:16:43.911Z,14.90
2022-10-30T14:19:34.154Z,15.20
2022-10-30T14:22:03.046Z,15.65
2022-10-30T14:24:37.723Z,15.40
2022-10-30T14:27:10.705Z,16.48
2022-10-30T14:29:52.702Z,15.65
2022-10-30T14:32:20.506Z,18.10
2022-10-30T14:35:04.050Z,16.75
2022-10-30T14:37:31.541Z,17.13
2022-10-30T14:40:38.808Z,18.67
2022-10-30T14:43:25.805Z,17.70
2022-10-30T14:46:01.487Z,16.13
2022-10-30T14:48:58.305Z,16.05
2022-10-30T14:51:56.317Z,17.23
2022-10-30T14:54:51.133Z,17.27
2022-10-30T14:57:42.845Z,16.65
2022-10-30T15:00:23.998Z,16.83
2022-10-30T15:03:12.700Z,17.40
2022-10-30T15:06:25.244Z,19.85
2022-10-30T15:09:01.683Z,17.52
2022-10-30T15:11:52.469Z,20.48
2022-10-30T15:17:34.384Z,19.08
2022-10-30T15:20:07.262Z,20.73
2022-10-30T15:22:37.877Z,19.38
2022-10-30T15:25:10.815Z,21.08
2022-10-30T15:27:43.404Z,20.92
2022-10-30T15:30:22.439Z,20.35
2022-10-30T15:32:50.652Z,22.63
2022-10-30T15:35:39.062Z,22.35
2022-10-30T15:38:13.239Z,26.33
2022-10-30T15:40:41.787Z,23.88
2022-10-30T15:43:13.504Z,24.85
2022-10-30T15:45:48.370Z,26.08
2022-10-30T15:48:35.294Z,30.27
2022-10-30T15:51:17.120Z,28.20
2022-10-30T15:54:02.058Z,31.00
2022-10-30T15:57:08.340Z,37.15
2022-10-30T15:59:37.222Z,49.10
2022-10-30T16:02:22.974Z,57.72
2022-10-30T16:04:54.386Z,61.25
2022-10-30T16:07:26.008Z,35.10
2022-10-30T16:10:02.833Z,29.67
2022-10-30T16:12:36.626Z,33.40
2022-10-30T16:15:27.080Z,31.75
2022-10-30T16:18:31.704Z,30.75
2022-10-30T16:21:14.385Z,32.97
2022-10-30T16:23:54.166Z,30.40
2022-10-30T16:26:38.506Z,32.30
2022-10-30T16:29:30.495Z,30.50
2022-10-30T16:31:59.599Z,31.38
2022-10-30T16:34:37.702Z,36.95
2022-10-30T16:39:52.517Z,34.17
2022-10-30T16:42:23.024Z,32.23
2022-10-30T16:45:03.977Z,31.75
2022-10-30T16:47:56.309Z,34.30
2022-10-30T16:50:37.992Z,32.97
2022-10-30T16:53:28.722Z,32.00
2022-10-30T16:55:59.808Z,33.53
2022-10-30T16:58:31.165Z,32.72
2022-10-30T17:01:14.405Z,32.05
2022-10-30T17:03:46.305Z,31.83
2022-10-30T17:06:46.917Z,33.35
2022-10-30T17:09:34.460Z,34.88
2022-10-30T17:12:31.855Z,35.47
2022-10-30T17:15:12.852Z,38.13
2022-10-30T17:17:42.788Z,36.22
2022-10-30T17:20:19.729Z,38.40
2022-10-30T17:23:06.801Z,38.65
2022-10-30T17:25:40.469Z,40.60
2022-10-30T17:28:27.887Z,39.55
2022-10-30T17:30:59.031Z,38.75
2022-10-30T17:33:42.643Z,38.72
2022-10-30T17:36:11.459Z,38.47
2022-10-30T17:38:39.201Z,38.17
2022-10-30T17:41:17.246Z,37.80
2022-10-30T17:43:59.848Z,39.45
2022-10-30T17:46:30.596Z,40.33
2022-10-30T17:48:59.337Z,40.67
2022-10-30T17:51:29.355Z,40.58
2022-10-30T17:53:58.104Z,40.15
2022-10-30T17:56:31.638Z,39.15
2022-10-30T17:58:59.800Z,29.70
2022-10-30T18:01:30.433Z,40.75
2022-10-30T18:04:01.923Z,43.58
2022-10-30T18:06:29.875Z,43.10
2022-10-30T18:08:58.875Z,45.78
2022-10-30T18:11:27.889Z,44.95
2022-10-30T18:13:57.087Z,48.95
2022-10-30T18:16:28.402Z,50.90
2022-10-30T18:18:59.200Z,49.63
2022-10-30T18:21:33.068Z,51.10
2022-10-30T18:24:01.681Z,52.03
2022-10-30T18:26:39.213Z,50.58
2022-10-30T18:29:11.164Z,52.17
2022-10-30T18:31:40.132Z,53.33
2022-10-30T18:34:21.847Z,54.33
2022-10-30T18:36:51.063Z,52.78
2022-10-30T18:39:24.308Z,52.58
2022-10-30T18:41:57.981Z,57.45
2022-10-30T18:44:26.088Z,55.03
2022-10-30T18:47:02.479Z,55.40
2022-10-30T18:49:38.148Z,56.13
2022-10-30T18:52:05.932Z,57.25
2022-10-30T18:54:35.141Z,57.05
2022-10-30T18:57:05.471Z,58.03
2022-10-30T18:59:39.377Z,58.28
2022-10-30T19:02:24.239Z,59.83
2022-10-30T19:04:53.231Z,60.38
2022-10-30T19:07:21.340Z,56.50
2022-10-30T19:09:49.204Z,59.05
2022-10-30T19:12:16.360Z,58.38
2022-10-30T19:14:48.981Z,60.30
2022-10-30T19:17:17.475Z,44.47
2022-10-30T19:19:46.192Z,61.92
2022-10-30T19:22:15.162Z,60.47
2022-10-30T19:24:46.239Z,64.05
2022-10-30T19:27:13.553Z,62.90
2022-10-30T19:29:44.399Z,62.47
2022-10-30T19:32:14.456Z,62.33
2022-10-30T19:34:47.024Z,64.80
2022-10-30T19:37:18.344Z,63.15
2022-10-30T19:39:50.100Z,64.05
2022-10-30T19:42:22.703Z,63.78
2022-10-30T19:44:52.357Z,65.97
2022-10-30T19:47:25.754Z,63.05
2022-10-30T19:49:54.257Z,59.95
2022-10-30T19:52:28.137Z,66.20
2022-10-30T19:54:58.666Z,65.55
2022-10-30T19:57:28.448Z,66.90
2022-10-30T19:59:59.278Z,68.30
2022-10-30T20:02:29.782Z,66.57
2022-10-30T20:05:01.738Z,69.13
2022-10-30T20:07:34.605Z,69.38
2022-10-30T20:10:05.804Z,75.18
2022-10-30T20:12:36.298Z,69.63
2022-10-30T20:15:09.232Z,76.30
2022-10-30T20:17:38.183Z,70.68
2022-10-30T20:20:08.025Z,70.10
2022-10-30T20:22:42.654Z,71.75
2022-10-30T20:25:15.179Z,70.13
2022-10-30T20:27:47.120Z,73.13
2022-10-30T20:30:24.151Z,78.40
2022-10-30T20:32:58.118Z,74.40
2022-10-30T20:35:29.626Z,73.82
2022-10-30T20:38:06.112Z,72.75
2022-10-30T20:40:40.777Z,69.38
2022-10-30T20:43:19.069Z,72.40
2022-10-30T20:45:49.954Z,70.95
2022-10-30T20:48:19.708Z,75.15
2022-10-30T20:50:52.840Z,76.22
2022-10-30T20:53:33.080Z,76.70
2022-10-30T20:56:05.984Z,77.22
2022-10-30T20:58:37.479Z,77.78
2022-10-30T21:01:09.049Z,80.75
2022-10-30T21:03:37.003Z,90.82
2022-10-30T21:06:10.413Z,96.20
2022-10-30T21:08:38.810Z,97.07
2022-10-30T21:11:10.987Z,96.22
2022-10-30T21:13:39.336Z,96.32
2022-10-30T21:16:15.649Z,99.57
2022-10-30T21:18:47.836Z,100.43
2022-10-30T21:21:22.917Z,98.40
2022-10-30T21:24:01.598Z,94.28
2022-10-30T21:26:53.643Z,91.90
2022-10-30T21:29:24.480Z,88.40
2022-10-30T21:31:53.385Z,89.45
2022-10-30T21:34:21.143Z,82.90
2022-10-30T21:36:53.657Z,85.93
2022-10-30T21:39:29.249Z,82.57
2022-10-30T21:42:01.289Z,84.55
2022-10-30T21:44:32.670Z,85.85
2022-10-30T21:47:01.200Z,87.35
2022-10-30T21:49:32.468Z,88.22
2022-10-30T21:52:04.350Z,103.85
2022-10-30T21:54:35.234Z,87.70
2022-10-30T21:57:04.138Z,85.97
2022-10-30T21:59:32.074Z,86.53
2022-10-30T22:02:02.634Z,90.28
2022-10-30T22:04:33.303Z,91.13
2022-10-30T22:07:04.892Z,89.55
2022-10-30T22:09:37.947Z,91.75
2022-10-30T22:12:06.568Z,88.43
2022-10-30T22:14:37.871Z,89.57
2022-10-30T22:17:06.991Z,84.30
2022-10-30T22:19:36.201Z,86.25
2022-10-30T22:22:07.046Z,85.05
2022-10-30T22:24:37.474Z,85.18
2022-10-30T22:27:09.807Z,83.53
2022-10-30T22:29:45.864Z,82.53
2022-10-30T22:32:18.149Z,80.43
2022-10-30T22:34:47.701Z,79.95
2022-10-30T22:37:15.027Z,77.28
2022-10-30T22:39:45.675Z,72.40
2022-10-30T22:42:16.622Z,74.32
2022-10-30T22:44:44.413Z,76.65
2022-10-30T22:47:11.615Z,75.38
2022-10-30T22:49:40.540Z,76.15
2022-10-30T22:52:10.238Z,75.80
2022-10-30T22:54:38.210Z,75.75
2022-10-30T22:57:05.458Z,80.10
2022-10-30T22:59:37.471Z,87.25
2022-10-30T23:02:09.027Z,95.93
2022-10-30T23:04:39.104Z,90.18
2022-10-30T23:07:07.116Z,85.57
2022-10-30T23:09:37.626Z,84.97
2022-10-30T23:12:10.617Z,86.13
2022-10-30T23:14:40.143Z,85.85
2022-10-30T23:17:08.385Z,76.03
2022-10-30T23:19:36.317Z,74.38
2022-10-30T23:22:06.711Z,75.45
2022-10-30T23:24:38.083Z,78.97
2022-10-30T23:27:07.712Z,76.85
2022-10-30T23:29:38.756Z,76.75
2022-10-30T23:32:07.250Z,77.82
2022-10-30T23:34:39.528Z,74.43
2022-10-30T23:37:12.250Z,77.07
2022-10-30T23:39:42.675Z,75.72
2022-10-30T23:42:10.168Z,76.45
2022-10-30T23:44:37.731Z,71.85
2022-10-30T23:47:07.562Z,72.18
2022-10-30T23:49:39.518Z,70.22
2022-10-30T23:52:07.246Z,69.40
2022-10-30T23:54:35.185Z,81.95
2022-10-30T23:57:03.291Z,72.15
2022-10-30T23:59:33.761Z,70.45
